Hayward, CA (94557)

7:00 PM PST on February 28, 2015 (GMT -0800)
Southgate | Change Station
CLOSE
Current Station
Personal Weather Station
Location: Hayward, CA
Elevation: 19 ft
Nearby Weather Stations

Elev 19 ft 37.64 °N, 122.09 °W | Updated 2 minutes ago

Mostly Cloudy
Mostly Cloudy
52.3 °F
Feels Like 52.3 °F
N
1.0
Wind Variable Wind from SSE

Today
High -- | Low -- °F
--% Chance of Precip.
Yesterday
High -- | Low -- °F
Precip. -- in
6:41 AM 6:01 PM
Waxing Gibbous, 82% visible
Pressure 29.86 in
Visibility 10.0 miles
Clouds Few 4700 ft
Scattered Clouds 5500 ft
Mostly Cloudy 7000 ft
Dew Point 44 °F
Humidity 74%
Rainfall 0.00 in
Snow Depth Not available.
UV 0.0 out of 12
Pollen 7.20 out of 12
Air Quality Not available.
Flu Activity Not available.
METAR KHWD 010154Z 16011KT 10SM FEW047 SCT055 BKN070 10/07 A2983 RMK AO2 WSHFT 0104 LTG DSNT W RAB08E27 SLP112 P0000 T01000067

More Conditions Fewer Conditions

Pressure 29.86 in
Visibility 10.0 miles
Clouds Few 4700 ft
Scattered Clouds 5500 ft
Mostly Cloudy 7000 ft
Dew Point 44 °F
Humidity 74%
Rainfall 0.00 in
Snow Depth Not available.
UV 0.0 out of 12
Pollen 7.20 out of 12
Air Quality Not available.
Flu Activity Not available.
METAR KHWD 010154Z 16011KT 10SM FEW047 SCT055 BKN070 10/07 A2983 RMK AO2 WSHFT 0104 LTG DSNT W RAB08E27 SLP112 P0000 T01000067

More Conditions Fewer Conditions

10-Day Weather Forecast

Almanac

Astronomy

Feb. 28, 2015 Rise Set
Actual Time
Civil Twilight
Nautical Twilight
Astronomical Twilight
Moon
Length of Visible Light
Length of Day
Tomorrow will be .
, % of the Moon is Illuminated

Today's Extremes

State Highs State Lows

Community

WunderPhotos

Upload Photos

1,801,276 photos uploaded!

WunderBlogs® & News

Nearby

Air Quality

  Air Quality AQ Index Pollutant
Not available.

Snow Depth

Station Depth Elevation

Earthquake Activity

City Distance Mag. Time & Date
Minimum magnitude displayed is 2.5.

Coastal Water Temperatures

Place Temperature

Nearby Weather Stations

Severe Thunderstorm Warning
Statement as of 6:48 PM PST on February 28, 2015

... The Severe Thunderstorm Warning for San Mateo County is
cancelled...

The thunderstorm has weakened below severe limits and continues to
move southwest out over the ocean. The Severe Thunderstorm Warning
has been cancelled.

NWS weather spotters in northern San Mateo County please report any
hail observed to the NWS San Francisco/Monterey Bay area office.

Lat... Lon 3761 12251 3762 12250 3769 12250 3770 12238
      3768 12237 3765 12236 3756 12252 3757 12253
      3760 12253
time... Mot... loc 0242z 068deg 8kt 3765 12250


Canepa